Weather observations for the past three days for
Jonesboro, Jonesboro Municipal Airport
Imperial (Metric)
Date Time (cdt) Wind (mph) Vis. (mi.) Weather Sky Cond. Temperature (ºF) Relative Humidity Wind Chill (°F) Heat Index (°F) Pressure Precipitation (in)
Air Dwpt 6 hour altimeter (in) sea level (mb) 1 hr 3 hr 6 hr
Max. Min.
02 10:53 S 7 10.00 Fair CLR 95 71.1 46% 102 30.07 1018.0
02 09:53 SW 6 10.00 Fair CLR 91.9 71.1 51% 99 30.08 1018.0
02 08:53 Calm 10.00 Fair CLR 86 72 63% 92 30.08 1018.1
02 07:53 Calm 10.00 Fair CLR 79 72 79% 82 30.07 1017.9
02 06:53 Calm 10.00 Fair CLR 73 70 79 72 90% 30.05 1017.3
02 05:53 Calm 10.00 Fair CLR 72 70 94% 30.04 1016.9
02 04:53 Calm 10.00 Fair CLR 73 70 90% 30.03 1016.6
02 03:53 Calm 10.00 Fair CLR 75 70 84% 75 30.03 1016.5
02 02:53 Calm 10.00 Fair CLR 75.9 71.1 85% 76 30.03 1016.4
02 01:53 E 5 10.00 Fair CLR 75.9 71.1 85% 76 30.03 1016.6
02 00:53 Calm 10.00 Fair CLR 78.1 70 93 77 76% 80 30.03 1016.4
01 23:53 Calm 10.00 Fair CLR 79 70 74% 82 30.02 1016.2
01 22:53 Calm 10.00 Fair CLR 80.1 70 71% 83 30.01 1015.9
01 21:53 SE 3 10.00 Fair CLR 82.9 69.1 63% 87 30.01 1015.7
01 20:53 SE 6 10.00 Fair CLR 86 70 59% 91 30 1015.4
01 19:53 SE 5 10.00 Fair CLR 90 69.1 50% 95 29.98 1014.9
01 18:53 S 7 10.00 Fair CLR 93.9 66.9 100.9 93.9 41% 98 29.98 1014.9
01 17:53 S 12 10.00 Fair CLR 98.1 66 35% 102 29.99 1015.1
01 16:53 S 8 10.00 Fair CLR 99 66.9 35% 104 29.99 1015.1
01 15:53 S 7 10.00 Overcast FEW070 BKN095 OVC110 97 69.1 40% 103 30 1015.6
01 14:53 Calm 10.00 Overcast BKN070 OVC095 96.1 70 43% 103 30.02 1016.1
01 13:53 Calm 10.00 Partly Cloudy FEW065 SCT095 97 68 39% 102 30.04 1016.7
01 12:53 S 12 10.00 Partly Cloudy SCT060 99 69.1 99 73 38% 105 30.06 1017.5
01 11:53 SW 8 10.00 Fair CLR 97 70 42% 104 30.08 1018.1
01 10:53 W 9 10.00 Fair CLR 96.1 71.1 44% 104 30.09 1018.4
01 09:53 SW 8 10.00 Fair CLR 93 71.1 49% 100 30.09 1018.7
01 08:53 W 8 10.00 Fair CLR 88 71.1 57% 94 30.1 1019.0
01 07:53 Calm 9.00 Fair CLR 80.1 72 76% 84 30.1 1018.8
01 06:53 Calm 10.00 Fair CLR 73 71.1 78.1 72 94% 30.09 1018.5
01 05:53 Calm 10.00 Fair CLR 72 70 94% 30.07 1017.9
01 04:53 Calm 10.00 Fair CLR 73 70 90% 30.06 1017.5
01 03:53 Calm 10.00 Fair CLR 73.9 70 88% 30.05 1017.1
01 02:53 Calm 10.00 Fair CLR 75 70 84% 75 30.04 1016.7
01 01:53 Calm 10.00 Fair CLR 75.9 70 82% 77 30.04 1016.8
01 00:53 Calm 10.00 Fair CLR 78.1 70 93 75.9 76% 80 30.04 1016.8
31 23:53 NE 5 10.00 Fair CLR 78.1 70 76% 80 30.04 1016.9
31 22:53 Calm 10.00 Fair CLR 80.1 70 71% 83 30.04 1016.7
31 21:53 Calm 10.00 Fair CLR 82 70 67% 86 30.03 1016.5
31 20:53 Calm 10.00 Fair CLR 84.9 69.1 59% 89 30.01 1016.0
31 19:53 SE 3 10.00 Fair CLR 84.9 70 61% 89 29.99 1015.3
31 18:53 S 7 10.00 Fair CLR 93 68 100 93 44% 97 29.99 1015.2
31 17:53 S 9 10.00 Fair CLR 96.1 66.9 39% 100 30 1015.4
31 16:53 S 8 10.00 A Few Clouds FEW065 98.1 68 38% 103 30.01 1015.8
31 15:53 S 9 10.00 Partly Cloudy SCT070 SCT090 98.1 68 38% 103 30.02 1016.2
31 14:53 SE 8 10.00 Mostly Cloudy BKN065 98.1 69.1 39% 104 30.03 1016.6
31 13:53 S 10 G 17 10.00 A Few Clouds FEW060 99 69.1 38% 105 30.06 1017.4
31 12:53 SW 8 10.00 Fair CLR 95 69.1 97 72 43% 101 30.08 1018.1
31 11:53 SW 5 10.00 Fair CLR 93.9 71.1 48% 101 30.09 1018.7
31 10:53 SW 10 10.00 Fair CLR 93 72 50% 101 30.11 1019.1
31 09:53 W 7 10.00 Fair CLR 89.1 72 57% 96 30.1 1018.8
31 08:53 SW 8 10.00 Fair CLR 84.9 71.1 63% 90 30.09 1018.6
31 07:53 Calm 10.00 Fair CLR 77 72 85% 78 30.09 1018.4
31 06:53 Calm 10.00 Fair CLR 73 70 79 71.1 90% 30.07 1017.8
31 05:53 Calm 10.00 Fair CLR 71.1 69.1 94% 30.06 1017.4
31 04:53 Calm 10.00 Fair CLR 73.9 70 88% 30.04 1016.9
31 03:53 S 6 10.00 Fair CLR 75.9 70 82% 77 30.03 1016.4
31 02:53 S 8 10.00 Fair CLR 77 71.1 82% 79 30.02 1016.2
31 01:53 S 7 10.00 Fair CLR 78.1 70 76% 80 30.03 1016.5
31 00:53 S 7 10.00 Fair CLR 79 70 91 75 74% 82 30.03 1016.7
30 23:53 E 5 10.00 Fair CLR 75 66 74% 76 30.03 1016.5
30 22:53 Calm 10.00 Fair CLR 77 64.9 66% 79 30.03 1016.5
30 21:53 Calm 10.00 Fair CLR 80.1 64 58% 82 30.02 1016.2
30 20:53 Calm 10.00 Fair CLR 80.1 64 58% 82 30.01 1015.7
30 19:53 Calm 10.00 Fair CLR 82.9 63 51% 84 29.99 1015.4
30 18:53 SW 6 10.00 Fair CLR 91 63 98.1 91 39% 92 29.99 1015.2
30 17:53 W 6 10.00 Fair CLR 95 62.1 34% 96 29.99 1015.1
30 16:53 SW 8 10.00 Fair CLR 96.1 61 31% 97 29.99 1015.3
30 15:53 Vrbl 6 10.00 Fair CLR 97 60.1 29% 97 30.01 1015.7
30 14:53 Calm 10.00 Fair CLR 96.1 59 29% 96 30.03 1016.7
30 13:53 W 10 G 22 10.00 Fair CLR 96.1 57.9 28% 95 30.05 1017.3
30 12:53 SW 10 G 22 10.00 Fair CLR 96.1 57 97 61 27% 95 30.06 1017.7
30 11:53 Vrbl 7 G 18 10.00 Fair CLR 95 55.9 27% 93 30.08 1018.1
Date Time (cdt) Wind (mph) Vis. (mi.) Weather Sky Cond. Air Dwpt Max. Min. Relative Humidity Wind Chill (°F) Heat Index (°F) altimeter (in) sea level (mb) 1 hr 3 hr 6 hr
6 hour
Temperature (ºF) Pressure Precipitation (in)